Time;durP1;ratioP1;P1;durP2;ratioP2;P2;SDS_P1;SDS_P2;PMS_P1;PMS_P2;Temp;Humidity;BMP_temperature;BMP_pressure;BME280_temperature;BME280_humidity;BME280_pressure;Samples;Min_cycle;Max_cycle;Signal;HPM_P1;HPM_P2
2023/07/17 00:00:41;;;;;;;4.03;1.80;;;;;;;-146.25;81.24;52068.13;2088210;28;34645;-75
2023/07/17 00:01:47;;;;;;;4.20;2.08;;;;;;;-146.25;81.28;52072.19;2088174;28;33099;-75
2023/07/17 00:02:49;;;;;;;6.75;2.22;;;;;;;-146.25;80.99;52055.97;2088071;28;36174;-75
2023/07/17 00:03:50;;;;;;;6.95;2.13;;;;;;;-146.25;81.21;52092.44;2088134;28;33232;-75
2023/07/17 00:04:52;;;;;;;2.95;1.90;;;;;;;-146.25;81.42;52098.53;2088754;28;39181;-76
2023/07/17 00:05:57;;;;;;;3.35;2.13;;;;;;;-146.25;80.88;52088.41;2088196;28;33911;-74
2023/07/17 00:06:59;;;;;;;4.13;2.17;;;;;;;-146.25;80.66;52106.66;2088340;28;32636;-75
2023/07/17 00:08:01;;;;;;;4.53;1.98;;;;;;;-146.25;80.69;52116.78;2088016;28;35273;-75
2023/07/17 00:09:02;;;;;;;4.03;1.73;;;;;;;-146.25;80.74;52104.63;2088402;28;31196;-76
2023/07/17 00:10:07;;;;;;;5.38;1.90;;;;;;;-146.25;80.62;52112.72;2088046;28;34799;-75
2023/07/17 00:11:09;;;;;;;5.38;2.08;;;;;;;-146.25;80.55;52082.31;2088815;28;20065;-75
2023/07/17 00:12:12;;;;;;;4.45;2.22;;;;;;;-146.25;81.06;52133.00;2087281;28;38344;-75
2023/07/17 00:13:14;;;;;;;4.32;2.30;;;;;;;-146.25;81.08;52088.41;2079952;28;33248;-74
2023/07/17 00:14:16;;;;;;;4.07;2.20;;;;;;;-146.25;80.41;52064.06;2087495;28;33074;-75
2023/07/17 00:15:18;;;;;;;5.53;2.00;;;;;;;-146.25;81.03;52058.00;2088228;28;37055;-75
2023/07/17 00:16:22;;;;;;;3.78;2.30;;;;;;;-146.25;81.41;52092.44;2088024;28;36781;-75
2023/07/17 00:17:28;;;;;;;3.70;1.75;;;;;;;-146.25;81.08;52092.44;2087950;28;35986;-75
2023/07/17 00:18:34;;;;;;;4.60;2.40;;;;;;;-146.25;80.98;52060.00;2087985;28;35173;-75
2023/07/17 00:19:38;;;;;;;6.50;2.28;;;;;;;-146.25;80.57;52096.50;2088820;28;31770;-75
2023/07/17 00:20:40;;;;;;;6.90;2.47;;;;;;;-146.25;81.05;52141.13;2087782;28;38149;-75
2023/07/17 00:21:42;;;;;;;6.93;2.58;;;;;;;-146.25;81.17;52088.41;2087807;28;36845;-75
2023/07/17 00:22:46;;;;;;;3.70;2.20;;;;;;;-146.25;80.99;52106.66;2087979;28;34554;-75
2023/07/17 00:23:48;;;;;;;3.55;2.28;;;;;;;-146.25;81.00;52068.13;2087825;28;36183;-75
2023/07/17 00:24:53;;;;;;;4.55;2.47;;;;;;;-146.25;80.61;52108.66;2087863;28;36641;-75
2023/07/17 00:25:55;;;;;;;4.97;2.15;;;;;;;-146.25;80.88;52094.47;2087754;28;33768;-75
2023/07/17 00:26:57;;;;;;;4.32;2.35;;;;;;;-146.25;80.52;52092.44;2086968;28;37656;-75
2023/07/17 00:27:59;;;;;;;4.85;2.28;;;;;;;-146.25;80.75;52076.22;2088879;28;32189;-75
2023/07/17 00:29:25;;;;;;;7.50;2.72;;;;;;;-146.25;80.53;52096.50;2087922;28;28564;-75
2023/07/17 00:30:27;;;;;;;5.32;2.20;;;;;;;-146.25;80.31;52090.44;2079510;28;20819;-75
2023/07/17 00:31:30;;;;;;;6.65;2.53;;;;;;;-146.25;80.56;52055.97;2072761;28;20092;-75
2023/07/17 00:32:32;;;;;;;4.80;2.25;;;;;;;-146.25;80.82;52070.16;2087271;28;30934;-75
2023/07/17 00:33:34;;;;;;;5.78;2.70;;;;;;;-146.25;80.61;52072.19;2096057;28;28514;-74
2023/07/17 00:34:36;;;;;;;4.82;2.63;;;;;;;-146.25;80.36;52110.69;2088514;28;23126;-75
2023/07/17 00:35:38;;;;;;;5.28;2.53;;;;;;;-146.25;81.05;52118.81;2087979;28;31475;-75
2023/07/17 00:36:39;;;;;;;4.13;2.60;;;;;;;-146.25;80.86;52112.72;2088488;28;27885;-75
2023/07/17 00:37:44;;;;;;;7.57;2.30;;;;;;;-146.25;81.13;52104.63;2088236;28;27726;-75
2023/07/17 00:38:46;;;;;;;6.10;2.53;;;;;;;-146.25;81.08;52116.78;2087950;28;20054;-75
2023/07/17 00:39:49;;;;;;;5.65;2.42;;;;;;;-146.25;81.29;52108.66;2087446;28;20218;-75
2023/07/17 00:40:51;;;;;;;7.47;2.47;;;;;;;-146.25;80.92;52120.84;2087471;28;32248;-75
2023/07/17 00:41:53;;;;;;;7.45;2.50;;;;;;;-146.25;81.28;52086.38;2086922;28;31496;-74
2023/07/17 00:43:00;;;;;;;6.10;2.67;;;;;;;-146.25;80.92;52092.44;2087551;28;28053;-74
2023/07/17 00:44:05;;;;;;;4.97;2.58;;;;;;;-146.25;81.42;52098.53;2096087;28;20041;-75
2023/07/17 00:45:07;;;;;;;4.80;2.17;;;;;;;-146.25;81.27;52086.38;2087384;28;24938;-75
2023/07/17 00:46:08;;;;;;;6.00;2.80;;;;;;;-146.25;81.34;52110.69;2088027;28;20041;-75
2023/07/17 00:47:10;;;;;;;6.07;2.50;;;;;;;-146.25;82.11;52082.31;2088269;28;30649;-75
2023/07/17 00:48:14;;;;;;;6.00;2.70;;;;;;;-146.25;81.53;52112.72;2087514;28;20052;-75
2023/07/17 00:49:22;;;;;;;3.97;2.60;;;;;;;-146.25;81.36;52108.66;2071822;28;20089;-74
2023/07/17 00:50:27;;;;;;;5.38;2.88;;;;;;;-146.25;81.78;52135.03;2073471;28;23990;-75
2023/07/17 00:51:31;;;;;;;6.78;2.55;;;;;;;-146.25;82.07;52090.44;2079993;28;20054;-75
2023/07/17 00:52:33;;;;;;;5.80;2.58;;;;;;;-146.25;82.25;52068.13;2087570;28;25564;-75
2023/07/17 00:53:35;;;;;;;4.93;2.40;;;;;;;-146.25;82.25;52058.00;2079166;28;24229;-75
2023/07/17 00:54:40;;;;;;;5.93;2.83;;;;;;;-146.25;81.96;52088.41;2079688;28;27492;-75
2023/07/17 00:55:43;;;;;;;4.97;2.75;;;;;;;-146.25;82.07;52064.06;2079442;28;20042;-74
2023/07/17 00:56:47;;;;;;;6.30;2.60;;;;;;;-146.25;82.75;52062.03;2072200;28;20160;-76
2023/07/17 00:57:51;;;;;;;5.18;2.42;;;;;;;-146.25;82.53;52058.00;2079336;28;28810;-75
2023/07/17 00:58:53;;;;;;;5.90;2.47;;;;;;;-146.25;82.87;52082.31;2079872;28;31311;-75
2023/07/17 00:59:55;;;;;;;6.82;2.72;;;;;;;-146.25;82.40;52112.72;2087321;28;28873;-74
2023/07/17 01:00:57;;;;;;;6.70;2.88;;;;;;;-146.25;82.60;52084.34;2088371;28;26096;-75
2023/07/17 01:02:01;;;;;;;7.75;3.05;;;;;;;-146.25;83.17;52096.50;2095886;28;20131;-75
2023/07/17 01:03:03;;;;;;;6.70;2.83;;;;;;;-146.25;83.42;52092.44;2095508;28;33860;-75
2023/07/17 01:04:08;;;;;;;5.93;2.45;;;;;;;-146.25;83.31;52120.84;2087160;28;31022;-75
2023/07/17 01:05:10;;;;;;;5.20;2.90;;;;;;;-146.25;83.55;52070.16;2087430;28;33762;-75
2023/07/17 01:06:13;;;;;;;4.95;3.00;;;;;;;-146.25;83.05;52092.44;2088174;28;20049;-75
2023/07/17 01:07:15;;;;;;;5.05;2.55;;;;;;;-146.25;83.78;52084.34;2088172;28;32540;-75
2023/07/17 01:08:17;;;;;;;4.40;3.13;;;;;;;-146.25;83.01;52112.72;2087961;28;29294;-74
2023/07/17 01:09:20;;;;;;;5.55;2.60;;;;;;;-146.25;83.48;52112.72;2088751;28;20782;-74
2023/07/17 01:10:25;;;;;;;7.25;2.72;;;;;;;-146.25;83.61;52090.44;2088271;28;20953;-75
2023/07/17 01:11:27;;;;;;;5.97;2.78;;;;;;;-146.25;83.54;52124.91;2088111;28;28324;-76
2023/07/17 01:12:32;;;;;;;4.47;2.88;;;;;;;-146.25;84.02;52078.25;2096682;28;20041;-74
2023/07/17 01:13:47;;;;;;;6.60;3.10;;;;;;;-146.25;84.29;52116.78;2095157;28;34257;-74
2023/07/17 01:14:49;;;;;;;5.50;3.05;;;;;;;-146.25;83.84;52112.72;2088350;28;20103;-74
2023/07/17 01:15:50;;;;;;;7.80;3.08;;;;;;;-146.25;84.61;52108.66;2088141;28;32332;-75
2023/07/17 01:16:52;;;;;;;4.68;3.03;;;;;;;-146.25;84.66;52110.69;2095099;28;32426;-74
2023/07/17 01:17:59;;;;;;;5.93;2.80;;;;;;;-146.25;85.30;52108.66;2095639;28;30211;-74
2023/07/17 01:19:09;;;;;;;4.15;2.90;;;;;;;-146.25;85.42;52116.78;2088311;28;20052;-75
2023/07/17 01:20:11;;;;;;;3.75;2.63;;;;;;;-146.25;85.25;52106.66;2088475;28;24935;-75
2023/07/17 01:21:17;;;;;;;5.43;2.90;;;;;;;-146.25;84.65;52082.31;2088112;28;21269;-75
2023/07/17 01:22:28;;;;;;;4.80;2.97;;;;;;;-146.25;85.43;52100.56;2088499;28;20144;-74
2023/07/17 01:23:31;;;;;;;6.05;2.85;;;;;;;-146.25;85.74;52094.47;2088227;28;25057;-75
2023/07/17 01:24:33;;;;;;;4.93;3.10;;;;;;;-146.25;85.29;52108.66;2087371;28;33744;-75
2023/07/17 01:25:35;;;;;;;6.47;2.78;;;;;;;-146.25;85.90;52080.28;2087953;28;20038;-74
2023/07/17 01:26:37;;;;;;;4.82;3.28;;;;;;;-146.25;86.59;52098.53;2088061;28;26091;-75
2023/07/17 01:27:38;;;;;;;6.45;3.05;;;;;;;-146.25;86.52;52098.53;2087702;28;31877;-75
2023/07/17 01:28:44;;;;;;;6.72;3.33;;;;;;;-146.25;86.80;52108.66;2087495;28;20166;-74
2023/07/17 01:29:46;;;;;;;4.47;2.95;;;;;;;-146.25;86.96;52090.44;2071506;28;28772;-76
2023/07/17 01:30:49;;;;;;;5.13;3.00;;;;;;;-146.25;87.08;52088.41;2080710;28;20033;-75
2023/07/17 01:31:52;;;;;;;5.95;2.88;;;;;;;-146.25;87.53;52124.91;2088122;28;20127;-76
2023/07/17 01:32:54;;;;;;;6.28;2.72;;;;;;;-146.25;87.52;52086.38;2087729;28;20996;-75
2023/07/17 01:33:57;;;;;;;8.18;3.13;;;;;;;-146.25;87.50;52098.53;2087655;28;20037;-75
2023/07/17 01:34:59;;;;;;;6.93;3.03;;;;;;;-146.25;87.83;52124.91;2095461;28;36397;-75
2023/07/17 01:36:04;;;;;;;7.25;3.40;;;;;;;-146.25;88.21;52108.66;2095917;28;26675;-75
2023/07/17 01:37:06;;;;;;;5.28;2.70;;;;;;;-146.25;88.85;52086.38;2088568;28;20028;-74
2023/07/17 01:38:10;;;;;;;6.93;3.53;;;;;;;-146.25;88.68;52096.50;2087526;28;31149;-75
2023/07/17 01:39:14;;;;;;;7.47;3.35;;;;;;;-146.25;88.63;52092.44;2095336;28;27975;-75
2023/07/17 01:40:18;;;;;;;6.57;3.28;;;;;;;-146.25;88.58;52080.28;2095325;28;25324;-75
2023/07/17 01:41:24;;;;;;;5.70;3.30;;;;;;;-146.25;89.01;52051.91;2087906;28;28038;-76
2023/07/17 01:42:26;;;;;;;7.82;3.70;;;;;;;-146.25;89.25;52104.63;2088337;28;20045;-75
2023/07/17 01:43:28;;;;;;;5.53;3.35;;;;;;;-146.25;89.14;52100.56;2086904;28;26590;-75
2023/07/17 01:44:31;;;;;;;5.90;3.10;;;;;;;-146.25;89.75;52137.06;2087951;28;20175;-75
2023/07/17 01:45:33;;;;;;;6.57;3.30;;;;;;;-146.25;89.84;52128.94;2087289;28;25152;-75
2023/07/17 01:46:35;;;;;;;6.28;2.90;;;;;;;-146.25;90.28;52088.41;2087326;28;27454;-75
2023/07/17 01:47:37;;;;;;;7.68;3.40;;;;;;;-146.25;90.05;52102.59;2087322;28;30040;-75
2023/07/17 01:48:39;;;;;;;5.45;2.72;;;;;;;-146.25;90.23;52110.69;2087119;28;20049;-75
2023/07/17 01:49:41;;;;;;;6.00;2.90;;;;;;;-146.25;90.25;52078.25;2087708;28;25339;-75
2023/07/17 01:50:47;;;;;;;4.53;2.80;;;;;;;-146.25;89.92;52116.78;2089754;28;21151;-75
2023/07/17 01:51:48;;;;;;;7.32;3.22;;;;;;;-146.25;90.20;52098.53;2088176;28;26369;-75
2023/07/17 01:52:50;;;;;;;5.75;3.58;;;;;;;-146.25;90.24;52092.44;2088864;28;25239;-75
2023/07/17 01:53:52;;;;;;;6.15;3.30;;;;;;;-146.25;90.39;52088.41;2088745;28;28740;-75
2023/07/17 01:54:54;;;;;;;7.97;3.00;;;;;;;-146.25;90.47;52082.31;2088305;28;30186;-74
2023/07/17 01:55:57;;;;;;;7.85;3.42;;;;;;;-146.25;90.15;52055.97;2089456;28;20136;-74
2023/07/17 01:56:59;;;;;;;7.57;3.30;;;;;;;-146.25;89.97;52094.47;2097185;28;20098;-75
2023/07/17 01:58:01;;;;;;;6.85;3.67;;;;;;;-146.25;89.58;52153.28;2089080;28;20164;-74
2023/07/17 01:59:05;;;;;;;7.47;3.60;;;;;;;-146.25;89.88;52090.44;2080701;28;20058;-75
2023/07/17 02:00:07;;;;;;;8.27;3.40;;;;;;;-146.25;90.03;52096.50;2080791;28;20945;-75
2023/07/17 02:01:15;;;;;;;6.32;3.70;;;;;;;-146.25;89.79;52124.91;2087963;28;20080;-75
2023/07/17 02:02:17;;;;;;;8.43;3.28;;;;;;;-146.25;89.37;52112.72;2089728;28;20929;-75
2023/07/17 02:03:18;;;;;;;9.57;3.38;;;;;;;-146.25;89.55;52141.13;2088589;28;28052;-75
2023/07/17 02:04:20;;;;;;;7.05;3.40;;;;;;;-146.25;89.69;52128.94;2088402;28;32824;-74
2023/07/17 02:05:23;;;;;;;5.40;3.05;;;;;;;-146.25;89.44;52092.44;2088945;28;20057;-74
2023/07/17 02:06:25;;;;;;;6.07;3.40;;;;;;;-146.25;89.07;52088.41;2097339;28;20064;-75
2023/07/17 02:07:27;;;;;;;5.45;3.15;;;;;;;-146.25;89.30;52078.25;2088981;28;20049;-75
2023/07/17 02:08:29;;;;;;;6.05;3.28;;;;;;;-146.25;88.89;52080.28;2088684;28;30901;-74
2023/07/17 02:09:31;;;;;;;6.35;3.22;;;;;;;-146.25;88.79;52092.44;2089137;28;31819;-75
2023/07/17 02:10:33;;;;;;;6.40;2.83;;;;;;;-146.25;89.55;52092.44;2089042;28;34326;-75
2023/07/17 02:11:35;;;;;;;6.63;3.30;;;;;;;-146.25;89.61;52090.44;2089381;28;20236;-74
2023/07/17 02:12:36;;;;;;;9.35;3.70;;;;;;;-146.25;90.69;52135.03;2088858;28;31589;-74
2023/07/17 02:13:38;;;;;;;6.30;3.38;;;;;;;-146.25;90.57;52122.88;2089096;28;25406;-74
2023/07/17 02:14:40;;;;;;;6.45;3.47;;;;;;;-146.25;92.03;52108.66;2088906;28;20037;-73
2023/07/17 02:15:42;;;;;;;8.40;3.92;;;;;;;-146.25;91.63;52096.50;2088636;28;27799;-75
2023/07/17 02:16:44;;;;;;;5.88;3.65;;;;;;;-146.25;91.90;52096.50;2089446;28;20096;-74
2023/07/17 02:17:48;;;;;;;7.70;4.00;;;;;;;-146.25;93.12;52116.78;2089015;28;26724;-75
2023/07/17 02:18:52;;;;;;;6.40;3.70;;;;;;;-146.25;93.58;52098.53;2096956;28;26664;-75
2023/07/17 02:19:54;;;;;;;7.43;3.67;;;;;;;-146.25;94.72;52118.81;2097170;28;20059;-74
2023/07/17 02:20:57;;;;;;;8.13;3.85;;;;;;;-146.25;94.26;52108.66;2089351;28;27656;-74
2023/07/17 02:21:58;;;;;;;5.63;3.42;;;;;;;-146.25;94.54;52088.41;2088938;28;30942;-74
2023/07/17 02:23:01;;;;;;;6.85;3.45;;;;;;;-146.25;94.80;52118.81;2096922;28;20068;-76
2023/07/17 02:24:05;;;;;;;5.80;3.47;;;;;;;-146.25;95.14;52128.94;2097084;28;20044;-76
2023/07/17 02:25:08;;;;;;;6.03;3.70;;;;;;;-146.25;96.09;52090.44;2089505;28;20239;-76
2023/07/17 02:26:12;;;;;;;7.25;4.20;;;;;;;-146.25;95.21;52092.44;2089212;28;29282;-76
2023/07/17 02:27:14;;;;;;;11.05;3.90;;;;;;;-146.25;94.91;52116.78;2088748;28;21003;-75
2023/07/17 02:28:16;;;;;;;6.28;3.78;;;;;;;-146.25;95.08;52094.47;2080180;28;26806;-74
2023/07/17 02:29:17;;;;;;;8.27;3.60;;;;;;;-146.25;95.25;52112.72;2089165;28;20160;-76
2023/07/17 02:30:19;;;;;;;9.70;3.85;;;;;;;-146.25;95.65;52116.78;2088111;28;34423;-75
2023/07/17 02:31:21;;;;;;;9.85;3.90;;;;;;;-146.25;95.14;52100.56;2088302;28;31171;-74
2023/07/17 02:32:23;;;;;;;5.90;3.25;;;;;;;-146.25;95.86;52092.44;2088910;28;34072;-73
2023/07/17 02:33:25;;;;;;;10.20;3.80;;;;;;;-146.25;95.83;52088.41;2088387;28;33308;-74
2023/07/17 02:34:29;;;;;;;7.05;3.40;;;;;;;-146.25;95.92;52084.34;2096377;28;33371;-74
2023/07/17 02:35:31;;;;;;;5.60;3.38;;;;;;;-146.25;96.64;52126.91;2096567;28;20045;-73
2023/07/17 02:36:32;;;;;;;9.25;3.70;;;;;;;-146.25;96.76;52110.69;2096189;28;34622;-75
2023/07/17 02:37:34;;;;;;;6.28;3.90;;;;;;;-146.25;96.66;52114.75;2097067;28;24142;-74
2023/07/17 02:38:37;;;;;;;8.77;4.00;;;;;;;-146.25;96.76;52114.75;2089425;28;20910;-74
2023/07/17 02:39:39;;;;;;;7.55;4.13;;;;;;;-146.25;96.88;52100.56;2088859;28;34396;-75
2023/07/17 02:40:44;;;;;;;6.55;3.72;;;;;;;-146.25;96.43;52088.41;2089505;28;20037;-75
2023/07/17 02:41:47;;;;;;;5.85;3.88;;;;;;;-146.25;96.63;52120.84;2088926;28;25970;-74
2023/07/17 02:42:49;;;;;;;8.50;3.67;;;;;;;-146.25;96.19;52128.94;2096306;28;27279;-74
2023/07/17 02:43:51;;;;;;;9.63;4.00;;;;;;;-146.25;97.38;52130.97;2096791;28;24400;-74
2023/07/17 02:44:54;;;;;;;7.85;4.05;;;;;;;-146.25;97.78;52086.38;2096535;28;32369;-74
2023/07/17 02:45:55;;;;;;;8.63;3.92;;;;;;;-146.25;97.06;52100.56;2089057;28;29460;-74
2023/07/17 02:46:57;;;;;;;7.93;3.70;;;;;;;-146.25;98.25;52120.84;2088932;28;20642;-74
2023/07/17 02:47:59;;;;;;;8.45;3.78;;;;;;;-146.25;97.89;52086.38;2088421;28;27252;-74
2023/07/17 02:49:01;;;;;;;10.18;4.22;;;;;;;-146.25;97.59;52088.41;2088822;28;29169;-73
2023/07/17 02:50:06;;;;;;;8.07;3.88;;;;;;;-146.25;97.89;52090.44;2088818;28;29640;-74
2023/07/17 02:51:09;;;;;;;6.63;3.72;;;;;;;-146.25;99.03;52090.44;2088915;28;20938;-73
2023/07/17 02:52:11;;;;;;;6.20;3.60;;;;;;;-146.25;98.85;52068.13;2087637;28;28302;-73
2023/07/17 02:53:14;;;;;;;7.45;3.67;;;;;;;-146.25;99.20;52094.47;2087692;28;36072;-75
2023/07/17 02:54:16;;;;;;;8.95;4.18;;;;;;;-146.25;99.35;52100.56;2089207;28;20423;-75
2023/07/17 02:55:18;;;;;;;9.20;3.63;;;;;;;-146.25;98.97;52128.94;2088854;28;24835;-73
2023/07/17 02:56:20;;;;;;;6.55;3.60;;;;;;;-146.25;99.72;52092.44;2088717;28;27665;-72
2023/07/17 02:57:25;;;;;;;10.52;3.80;;;;;;;-146.25;99.89;52100.56;2089450;28;20096;-73
2023/07/17 02:58:26;;;;;;;9.65;3.60;;;;;;;-146.25;100.00;52124.91;2089239;28;25182;-72
2023/07/17 02:59:29;;;;;;;9.30;3.83;;;;;;;-146.25;100.00;52088.41;2088528;28;30886;-72
2023/07/17 03:00:31;;;;;;;6.65;3.80;;;;;;;-146.25;100.00;52128.94;2088541;28;20140;-72
2023/07/17 03:01:33;;;;;;;6.18;3.70;;;;;;;-146.25;100.00;52108.66;2087273;28;20052;-72
2023/07/17 03:02:41;;;;;;;8.85;4.15;;;;;;;-146.25;100.00;52112.72;2089231;28;20046;-73
2023/07/17 03:03:47;;;;;;;9.00;4.20;;;;;;;-146.25;100.00;52139.09;2088721;28;20045;-72
2023/07/17 03:04:49;;;;;;;5.90;3.05;;;;;;;-146.25;100.00;52108.66;2088823;28;22816;-73
2023/07/17 03:05:51;;;;;;;6.75;3.85;;;;;;;-146.25;100.00;52110.69;2088936;28;28154;-72
2023/07/17 03:06:53;;;;;;;9.25;4.10;;;;;;;-146.25;100.00;52116.78;2088867;28;31616;-73
2023/07/17 03:07:57;;;;;;;8.05;4.03;;;;;;;-146.25;100.00;52078.25;2089432;28;20859;-72
2023/07/17 03:09:00;;;;;;;8.27;3.70;;;;;;;-146.25;100.00;52072.19;2089236;28;20041;-71
2023/07/17 03:10:02;;;;;;;6.90;3.97;;;;;;;-146.25;100.00;52064.06;2088687;28;26728;-72
2023/07/17 03:11:07;;;;;;;6.20;3.67;;;;;;;-146.25;100.00;52120.84;2089371;28;20072;-72
2023/07/17 03:12:09;;;;;;;8.30;4.07;;;;;;;-146.25;100.00;52110.69;2096091;28;32811;-72
2023/07/17 03:13:11;;;;;;;10.57;3.90;;;;;;;-146.25;100.00;52084.34;2088061;28;22943;-72
2023/07/17 03:14:13;;;;;;;8.82;4.32;;;;;;;-146.25;100.00;52165.44;2088316;28;20053;-73
2023/07/17 03:15:17;;;;;;;7.70;4.00;;;;;;;-146.25;100.00;52155.31;2088380;28;20044;-73
2023/07/17 03:16:19;;;;;;;9.45;4.13;;;;;;;-146.25;100.00;52112.72;2088627;28;20173;-73
2023/07/17 03:17:21;;;;;;;8.43;4.13;;;;;;;-146.25;100.00;52141.13;2088360;28;20041;-72
2023/07/17 03:18:23;;;;;;;7.68;3.88;;;;;;;-146.25;100.00;52116.78;2088250;28;20042;-73
2023/07/17 03:19:25;;;;;;;8.35;3.60;;;;;;;-146.25;100.00;52096.50;2096856;28;20067;-71
2023/07/17 03:20:27;;;;;;;6.07;3.40;;;;;;;-146.25;100.00;52120.84;2079628;28;30387;-72
2023/07/17 03:21:29;;;;;;;7.47;3.83;;;;;;;-146.25;100.00;52133.00;2080049;28;20038;-73
2023/07/17 03:22:31;;;;;;;9.68;3.60;;;;;;;-146.25;100.00;52118.81;2088381;28;20176;-72
2023/07/17 03:23:34;;;;;;;8.68;4.15;;;;;;;-146.25;100.00;52133.00;2087965;28;32486;-73
2023/07/17 03:24:36;;;;;;;7.50;4.00;;;;;;;-146.25;100.00;52096.50;2089193;28;20957;-72
2023/07/17 03:25:41;;;;;;;8.55;4.15;;;;;;;-146.25;100.00;52133.00;2087658;28;32393;-72
2023/07/17 03:26:43;;;;;;;10.05;3.70;;;;;;;-146.25;100.00;52145.16;2089578;28;24903;-72
2023/07/17 03:27:45;;;;;;;11.43;4.13;;;;;;;-146.25;100.00;52137.06;2096755;28;20205;-72
2023/07/17 03:28:46;;;;;;;6.05;3.60;;;;;;;-146.25;100.00;52124.91;2089299;28;20198;-72
2023/07/17 03:29:48;;;;;;;8.05;4.00;;;;;;;-146.25;100.00;52128.94;2088845;28;20830;-74
2023/07/17 03:30:51;;;;;;;6.43;3.40;;;;;;;-146.25;100.00;52143.13;2088463;28;21024;-73
2023/07/17 03:31:55;;;;;;;6.47;3.65;;;;;;;-146.25;100.00;52157.34;2080421;28;20115;-71
2023/07/17 03:32:57;;;;;;;7.03;3.58;;;;;;;-146.25;100.00;52137.06;2088105;28;20050;-72
2023/07/17 03:33:58;;;;;;;7.95;3.90;;;;;;;-146.25;100.00;52157.34;2096174;28;29375;-73
2023/07/17 03:35:01;;;;;;;8.57;3.80;;;;;;;-146.25;100.00;52116.78;2088026;28;23131;-73
2023/07/17 03:36:06;;;;;;;6.65;3.33;;;;;;;-146.25;100.00;52137.06;2079369;28;35837;-73
2023/07/17 03:37:08;;;;;;;10.40;3.78;;;;;;;-146.25;100.00;52130.97;2088498;28;20095;-72
2023/07/17 03:38:11;;;;;;;5.55;3.78;;;;;;;-146.25;100.00;52118.81;2088419;28;20029;-73
2023/07/17 03:39:13;;;;;;;8.45;3.95;;;;;;;-146.25;100.00;52108.66;2088944;28;24492;-72
2023/07/17 03:40:14;;;;;;;7.43;3.80;;;;;;;-146.25;100.00;52173.56;2096393;28;20037;-72
2023/07/17 03:41:20;;;;;;;7.43;3.88;;;;;;;-146.25;100.00;52084.34;2088193;28;20052;-72
2023/07/17 03:42:22;;;;;;;7.93;3.65;;;;;;;-146.25;100.00;52130.97;2088608;28;20034;-72
2023/07/17 03:43:24;;;;;;;10.48;4.20;;;;;;;-146.25;100.00;52126.91;2096598;28;20973;-72
2023/07/17 03:44:25;;;;;;;7.28;3.30;;;;;;;-146.25;100.00;52149.22;2088190;28;21056;-72
2023/07/17 03:45:27;;;;;;;7.20;3.70;;;;;;;-146.25;100.00;52133.00;2088104;28;22348;-72
2023/07/17 03:46:30;;;;;;;10.82;4.15;;;;;;;-146.25;100.00;52112.72;2088732;28;20172;-72
2023/07/17 03:47:32;;;;;;;5.15;3.45;;;;;;;-146.25;100.00;52137.06;2080095;28;20046;-72
2023/07/17 03:48:34;;;;;;;5.65;3.90;;;;;;;-146.25;100.00;52151.25;2079949;28;20957;-72
2023/07/17 03:49:40;;;;;;;11.68;3.90;;;;;;;-146.25;100.00;52114.75;2097157;28;20122;-72
2023/07/17 03:50:48;;;;;;;9.13;3.95;;;;;;;-146.25;100.00;52153.28;2088139;28;20037;-73
2023/07/17 03:51:50;;;;;;;7.15;3.63;;;;;;;-146.25;100.00;52128.94;2088829;28;20037;-73
2023/07/17 03:52:54;;;;;;;6.63;3.65;;;;;;;-146.25;100.00;52100.56;2087825;28;20054;-73
2023/07/17 03:53:56;;;;;;;6.72;3.33;;;;;;;-146.25;100.00;52108.66;2088467;28;20037;-74
2023/07/17 03:54:58;;;;;;;8.48;3.67;;;;;;;-146.25;100.00;52068.13;2087651;28;20089;-73
2023/07/17 03:56:00;;;;;;;8.80;4.00;;;;;;;-146.25;100.00;52120.84;2080035;28;20112;-73
2023/07/17 03:57:27;;;;;;;8.73;3.70;;;;;;;-146.25;100.00;52122.88;2079612;28;20157;-73
2023/07/17 03:58:32;;;;;;;7.07;3.50;;;;;;;-146.25;100.00;52153.28;2091834;28;20114;-73
2023/07/17 03:59:53;;;;;;;8.10;4.20;;;;;;;-146.25;100.00;52108.66;2087336;28;20120;-73
2023/07/17 04:01:13;;;;;;;7.55;3.70;;;;;;;-146.25;100.00;52159.34;2088160;28;20079;-73
2023/07/17 04:02:20;;;;;;;8.57;3.97;;;;;;;-146.25;100.00;52135.03;2096282;28;20029;-74
2023/07/17 04:03:24;;;;;;;9.55;3.80;;;;;;;-146.25;100.00;52141.13;2086970;28;33965;-73
2023/07/17 04:04:27;;;;;;;6.72;3.80;;;;;;;-146.25;100.00;52133.00;2088717;28;20104;-73
2023/07/17 04:05:29;;;;;;;7.15;3.55;;;;;;;-146.25;100.00;52128.94;2088014;28;20856;-73
2023/07/17 04:06:31;;;;;;;11.30;3.85;;;;;;;-146.25;100.00;52151.25;2087970;28;24360;-74
2023/07/17 04:07:34;;;;;;;8.20;4.00;;;;;;;-146.25;100.00;52108.66;2087842;28;20815;-73
2023/07/17 04:08:36;;;;;;;8.32;3.63;;;;;;;-146.25;100.00;52135.03;2079831;28;22779;-73
2023/07/17 04:09:39;;;;;;;8.68;3.40;;;;;;;-146.25;100.00;52126.91;2071791;28;20121;-73
2023/07/17 04:10:41;;;;;;;7.70;3.85;;;;;;;-146.25;100.00;52124.91;2080757;28;20838;-73
2023/07/17 04:11:46;;;;;;;8.00;3.80;;;;;;;-146.25;100.00;52163.41;2087876;28;20096;-73
2023/07/17 04:12:53;;;;;;;7.55;3.78;;;;;;;-146.25;100.00;52169.50;2088982;28;20046;-73
2023/07/17 04:13:55;;;;;;;6.47;3.40;;;;;;;-146.25;100.00;52153.28;2087721;28;20168;-71
2023/07/17 04:14:57;;;;;;;7.28;3.20;;;;;;;-146.25;100.00;52120.84;2088402;28;20089;-74
2023/07/17 04:16:04;;;;;;;7.70;3.75;;;;;;;-146.25;100.00;52143.13;2087968;28;20037;-73
2023/07/17 04:17:06;;;;;;;7.78;3.40;;;;;;;-146.25;100.00;52173.56;2089012;28;20042;-73
2023/07/17 04:18:08;;;;;;;8.75;3.88;;;;;;;-146.25;100.00;52133.00;2087354;28;20049;-73
2023/07/17 04:19:13;;;;;;;8.65;3.53;;;;;;;-146.25;100.00;52149.22;2088339;28;20110;-74
2023/07/17 04:20:16;;;;;;;7.30;3.40;;;;;;;-146.25;100.00;52149.22;2087942;28;20049;-73
2023/07/17 04:21:20;;;;;;;6.25;3.65;;;;;;;-146.25;100.00;52133.00;2088378;28;20060;-73
2023/07/17 04:22:22;;;;;;;6.90;3.22;;;;;;;-146.25;99.85;52106.66;2087656;28;20042;-73
2023/07/17 04:23:24;;;;;;;5.53;3.20;;;;;;;-146.25;99.49;52122.88;2088150;28;20089;-73
2023/07/17 04:24:29;;;;;;;9.07;3.60;;;;;;;-146.25;99.59;52135.03;2087541;28;20045;-73
2023/07/17 04:25:32;;;;;;;6.68;3.53;;;;;;;-146.25;99.85;52153.28;2088215;28;20171;-73
2023/07/17 04:26:34;;;;;;;8.90;3.58;;;;;;;-146.25;99.54;52139.09;2079775;28;20050;-73
2023/07/17 04:27:36;;;;;;;8.25;3.60;;;;;;;-146.25;99.08;52114.75;2088377;28;20046;-73
2023/07/17 04:28:38;;;;;;;6.05;3.20;;;;;;;-146.25;98.68;52137.06;2095951;28;20045;-73
2023/07/17 04:29:40;;;;;;;5.97;3.40;;;;;;;-146.25;98.40;52104.63;2088124;28;20100;-73
2023/07/17 04:30:42;;;;;;;7.18;3.03;;;;;;;-146.25;98.07;52173.56;2087899;28;20042;-73
2023/07/17 04:31:47;;;;;;;9.35;3.08;;;;;;;-146.25;97.33;52114.75;2087973;28;20969;-73
2023/07/17 04:32:53;;;;;;;7.18;2.95;;;;;;;-146.25;96.46;52151.25;2079264;28;20042;-73
2023/07/17 04:33:55;;;;;;;6.38;3.33;;;;;;;-146.25;95.67;52155.31;2087965;28;20942;-73
2023/07/17 04:34:57;;;;;;;5.03;2.88;;;;;;;-146.25;95.13;52137.06;2087726;28;31688;-73
2023/07/17 04:36:06;;;;;;;6.50;3.15;;;;;;;-146.25;93.16;52139.09;2096328;28;20147;-73
2023/07/17 04:37:08;;;;;;;6.82;3.08;;;;;;;-146.25;93.13;52151.25;2087884;28;20046;-73
2023/07/17 04:38:09;;;;;;;6.75;2.70;;;;;;;-146.25;91.38;52165.44;2087630;28;23747;-73
2023/07/17 04:39:11;;;;;;;5.60;2.78;;;;;;;-146.25;91.02;52141.13;2096435;28;20844;-73
2023/07/17 04:40:15;;;;;;;9.77;3.25;;;;;;;-146.25;88.30;52155.31;2096458;28;20033;-73
2023/07/17 04:41:22;;;;;;;11.43;3.08;;;;;;;-146.25;87.86;52112.72;2087815;28;20042;-74
2023/07/17 04:42:26;;;;;;;5.30;2.88;;;;;;;-146.25;85.26;52161.38;2088358;28;20038;-73
2023/07/17 04:43:28;;;;;;;4.47;2.40;;;;;;;-146.25;83.46;52122.88;2087574;28;20829;-73
2023/07/17 04:44:33;;;;;;;6.45;3.00;;;;;;;-146.25;82.74;52124.91;2088116;28;20048;-73
2023/07/17 04:45:44;;;;;;;8.25;3.15;;;;;;;-146.25;82.86;52147.19;2087767;28;20041;-74
2023/07/17 04:46:51;;;;;;;8.18;3.08;;;;;;;-146.25;82.19;52128.94;2081389;28;20137;-73
2023/07/17 04:47:54;;;;;;;4.75;2.67;;;;;;;-146.25;82.87;52120.84;2089061;28;21039;-73
2023/07/17 04:48:58;;;;;;;5.60;2.47;;;;;;;-146.25;80.90;52120.84;2095654;28;22744;-73
2023/07/17 04:50:03;;;;;;;5.47;2.70;;;;;;;-146.25;81.93;52114.75;2088021;28;20053;-73